DAOI

Ech Cheliff Airport

Algeria
METAR DAOI 250000Z 06006KT 9999 -TS FEW026CB SCT030 23/14 Q1012
Observed Flight Rules
Apr-25 @ 00:00 UTC (41 minutes ago) Visual Flight Rules
Wind Visibility Clouds Conditions
60° at 6 knots 10,000+ meters
  • Few at 2,600' AGL
  • Scattered at 3,000' AGL
  • Light Thunderstorm
Temperatures Readings
Current 23°C / 73°F
Dewpoint 14°C / 57°F
Humidity 57%
Altimeter 29.88" Hg
Pressure 1012 hPa
Elevation 143
METAR DAOI 250000Z 06006KT 9999 -TS FEW026CB SCT030 23/14 Q1012
Observed Flight Rules
Apr-25 @ 00:00 UTC
(41 minutes ago)
VFR
Wind Visibility
60° at 6 knots 10,000+ meters
Clouds
  • Few at 2,600' AGL
  • Scattered at 3,000' AGL
Conditions
  • Light Thunderstorm
Temperature Dewpoint
23°C / 73°F 14°C / 57°F
Humidity Altimeter Pressure
57% 29.88" Hg 1012 hPa